Map

Track Data

SID SEASON NUMBER BASIN SUBBASIN NAME ISO_TIME NATURE LAT LON WMO_WIND WMO_PRES WMO_AGENCY TRACK_TYPE DIST2LAND LANDFALL IFLAG USA_AGENCY USA_ATCF_ID USA_LAT USA_LON USA_RECORD USA_STATUS USA_WIND USA_PRES USA_SSHS USA_R34_NE USA_R34_SE USA_R34_SW USA_R34_NW USA_R50_NE USA_R50_SE USA_R50_SW USA_R50_NW USA_R64_NE USA_R64_SE USA_R64_SW USA_R64_NW USA_POCI USA_ROCI USA_RMW USA_EYE TOKYO_LAT TOKYO_LON TOKYO_GRADE TOKYO_WIND TOKYO_PRES TOKYO_R50_DIR TOKYO_R50_LONG TOKYO_R50_SHORT TOKYO_R30_DIR TOKYO_R30_LONG TOKYO_R30_SHORT TOKYO_LAND CMA_LAT CMA_LON CMA_CAT CMA_WIND CMA_PRES HKO_LAT HKO_LON HKO_CAT HKO_WIND HKO_PRES NEWDELHI_LAT NEWDELHI_LON NEWDELHI_GRADE NEWDELHI_WIND NEWDELHI_PRES NEWDELHI_CI NEWDELHI_DP NEWDELHI_POCI REUNION_LAT REUNION_LON REUNION_TYPE REUNION_WIND REUNION_PRES REUNION_TNUM REUNION_CI REUNION_RMW REUNION_R34_NE REUNION_R34_SE REUNION_R34_SW REUNION_R34_NW REUNION_R50_NE REUNION_R50_SE REUNION_R50_SW REUNION_R50_NW REUNION_R64_NE REUNION_R64_SE REUNION_R64_SW REUNION_R64_NW BOM_LAT BOM_LON BOM_TYPE BOM_WIND BOM_PRES BOM_TNUM BOM_CI BOM_RMW BOM_R34_NE BOM_R34_SE BOM_R34_SW BOM_R34_NW BOM_R50_NE BOM_R50_SE BOM_R50_SW BOM_R50_NW BOM_R64_NE BOM_R64_SE BOM_R64_SW BOM_R64_NW BOM_ROCI BOM_POCI BOM_EYE BOM_POS_METHOD BOM_PRES_METHOD NADI_LAT NADI_LON NADI_CAT NADI_WIND NADI_PRES WELLINGTON_LAT WELLINGTON_LON WELLINGTON_WIND WELLINGTON_PRES DS824_LAT DS824_LON DS824_STAGE DS824_WIND DS824_PRES TD9636_LAT TD9636_LON TD9636_STAGE TD9636_WIND TD9636_PRES TD9635_LAT TD9635_LON TD9635_WIND TD9635_PRES TD9635_ROCI NEUMANN_LAT NEUMANN_LON NEUMANN_CLASS NEUMANN_WIND NEUMANN_PRES MLC_LAT MLC_LON MLC_CLASS MLC_WIND MLC_PRES USA_GUST BOM_GUST BOM_GUST_PER REUNION_GUST REUNION_GUST_PER USA_SEAHGT USA_SEARAD_NE USA_SEARAD_SE USA_SEARAD_SW USA_SEARAD_NW STORM_SPEED STORM_DIR
1956004S11095 1956 2 SI WA NOT_NAMED 1956-01-04 06:00:00 TS -10.5000 95.1000 main 1070 1070 O________OO___ jtwc_sh SH071956 -10.5000 95.1000 -1 -10.5000 95.1000 TC 25 -10.5000 95.1000 7 10 264
1956004S11095 1956 2 SI WA NOT_NAMED 1956-01-04 09:00:00 TS -10.5574 94.5855 main 1104 1104 P________PP___ SH071956 -10.5401 94.6075 -1 -10.5401 94.6075 TC 25 -10.5919 94.5415 7 10 263
1956004S11095 1956 2 SI WA NOT_NAMED 1956-01-04 12:00:00 TS -10.6255 94.0687 main 1129 1129 O________OP___ jtwc_sh SH071956 -10.6000 94.1000 -1 -10.6000 94.1000 TC 25 -10.6766 94.0062 7 10 261
1956004S11095 1956 2 SI WA NOT_NAMED 1956-01-04 15:00:00 TS -10.7110 93.5576 main 1166 1166 P________PP___ SH071956 -10.6925 93.5775 -1 -10.6925 93.5775 TC 30 -10.7480 93.5178 7 10 260
1956004S11095 1956 2 SI WA NOT_NAMED 1956-01-04 18:00:00 TS -10.8000 93.1000 main 1204 1204 O________OO___ jtwc_sh SH071956 -10.8000 93.1000 -1 -10.8000 93.1000 TC 35 -10.8000 93.1000 2 8 258
1956004S11095 1956 2 SI WA NOT_NAMED 1956-01-04 21:00:00 TS -10.8781 92.7436 main 1237 1237 P________PP___ SH071956 -10.8998 92.7350 -1 -10.8998 92.7350 TC 35 -10.8347 92.7609 2 7 256
1956004S11095 1956 2 SI WA NOT_NAMED 1956-01-05 00:00:00 TS -10.9619 92.4151 main 1265 1265 O________OP___ jtwc_sh SH071956 -11.0000 92.4000 -1 -11.0000 92.4000 TC 35 -10.8857 92.4453 2 7 256
1956004S11095 1956 2 SI WA NOT_NAMED 1956-01-05 03:00:00 TS -11.0394 92.0721 main 1284 1284 P________PP___ SH071956 -11.0622 92.0671 -1 -11.0622 92.0671 TC 35 -10.9938 92.0822 2 8 253
1956004S11095 1956 2 SI WA NOT_NAMED 1956-01-05 06:00:00 TS -11.2000 91.6000 main 1335 1335 O________OO___ jtwc_sh SH071956 -11.2000 91.6000 -1 -11.2000 91.6000 TC 35 -11.2000 91.6000 2 13 249
1956004S11095 1956 2 SI WA NOT_NAMED 1956-01-05 09:00:00 TS -11.4998 90.8745 main 1409 1409 P________PP___ SH071956 -11.4826 90.8673 -1 -11.4826 90.8673 TC 35 -11.5342 90.8887 2 17 245
1956004S11095 1956 2 SI WA NOT_NAMED 1956-01-05 12:00:00 TS -11.9222 90.0185 main 1506 1506 O________OP___ jtwc_sh SH071956 -11.9000 90.0000 -1 -11.9000 90.0000 TC 35 -11.9666 90.0556 2 19 241
1956004S11095 1956 2 SI MM NOT_NAMED 1956-01-05 15:00:00 TS -12.4351 89.1515 main 1606 1606 P________PP___ SH071956 -12.4199 89.1425 -1 -12.4199 89.1425 TC 35 -12.4655 89.1695 2 20 237
1956004S11095 1956 2 SI MM NOT_NAMED 1956-01-05 18:00:00 TS -13.0000 88.3000 main 1722 1722 O________OO___ jtwc_sh SH071956 -13.0000 88.3000 -1 -13.0000 88.3000 TC 35 -13.0000 88.3000 2 19 235
1956004S11095 1956 2 SI MM NOT_NAMED 1956-01-05 21:00:00 TS -13.5455 87.5228 main 1822 1822 P________PP___ SH071956 -13.5497 87.5271 -1 -13.5497 87.5271 TC 35 -13.5370 87.5141 2 18 233
1956004S11095 1956 2 SI MM NOT_NAMED 1956-01-06 00:00:00 TS -14.0998 86.7868 main 1923 1923 O________OP___ jtwc_sh SH071956 -14.1000 86.8000 -1 -14.1000 86.8000 TC 35 -14.0995 86.7605 2 18 232
1956004S11095 1956 2 SI MM NOT_NAMED 1956-01-06 03:00:00 TS -14.6640 86.0638 main 2024 2024 P________PP___ SH071956 -14.6649 86.0699 -1 -14.6649 86.0699 TC 50 -14.6623 86.0515 2 17 231
1956004S11095 1956 2 SI MM NOT_NAMED 1956-01-06 06:00:00 TS -15.2000 85.4000 main 2117 2117 O________OO___ jtwc_sh SH071956 -15.2000 85.4000 -1 -15.2000 85.4000 TC 65 -15.2000 85.4000 4 16 230
1956004S11095 1956 2 SI MM NOT_NAMED 1956-01-06 09:00:00 TS -15.6690 84.8157 main 2202 2202 P________PP___ SH071956 -15.6647 84.8196 -1 -15.6647 84.8196 TC 65 -15.6777 84.8080 4 14 230
1956004S11095 1956 2 SI MM NOT_NAMED 1956-01-06 12:00:00 TS -16.1095 84.2911 main 2272 2272 O________OP___ jtwc_sh SH071956 -16.1000 84.3000 -1 -16.1000 84.3000 TC 65 -16.1286 84.2732 4 13 228
1956004S11095 1956 2 SI MM NOT_NAMED 1956-01-06 15:00:00 TS -16.5550 83.7871 main 2349 2349 P________PP___ SH071956 -16.5498 83.7922 -1 -16.5498 83.7922 TC 65 -16.5654 83.7769 4 13 227
1956004S11095 1956 2 SI MM NOT_NAMED 1956-01-06 18:00:00 TS -17.0000 83.3000 main 2418 2418 O________OO___ jtwc_sh SH071956 -17.0000 83.3000 -1 -17.0000 83.3000 TC 65 -17.0000 83.3000 4 13 227
1956004S11095 1956 2 SI MM NOT_NAMED 1956-01-06 21:00:00 TS -17.4473 82.8037 main 2488 2488 P________PP___ SH071956 -17.4499 82.7923 -1 -17.4499 82.7923 TC 65 -17.4421 82.8265 4 13 226
1956004S11095 1956 2 SI MM NOT_NAMED 1956-01-07 00:00:00 TS -17.8971 82.3175 main 2565 2536 O________OP___ jtwc_sh SH071956 -17.9000 82.3000 -1 -17.9000 82.3000 TC 65 -17.8913 82.3524 4 13 225
1956004S11095 1956 2 SI MM NOT_NAMED 1956-01-07 03:00:00 TS -18.3484 81.8527 main 2536 2476 P________PP___ SH071956 -18.3502 81.8404 -1 -18.3502 81.8404 TC 65 -18.3449 81.8771 4 13 224
1956004S11095 1956 2 SI MM NOT_NAMED 1956-01-07 06:00:00 TS -18.8000 81.4000 main 2476 O________OO___ jtwc_sh SH071956 -18.8000 81.4000 -1 -18.8000 81.4000 TC 65 -18.8000 81.4000 4 13 223

About IBTrACS Database

This database is a web-friendly format of International Best Track Archive for Climate Stewardship (IBTrACS), a global best track data archive curated by NOAA dating back to 1842.

Updated: 2021-12-03